Terminal Aerodrome Forecast
Issued by NWS Jackson, MS

Home | Current Version | Previous Version | Text Only | Print | Product List | Glossary On
Versions: 1 2 3 4 5 6 7 8 9 10 11 12 13 14 15 16 17 18 19 20 21
000
FTUS44 KMEG 031720
TAFTUP
TAF
KTUP 031720Z 0318/0418 03005KT P6SM BKN035
     FM040000 00000KT P6SM SKC
     FM040900 00000KT 4SM BR SKC
     FM041300 08003KT P6SM SKC=

USA.gov is the U.S. government's official web portal to all federal, state and local government web resources and services.